AirNav  
 
 1487 users online  

62K Seneca Municipal Airport
Seneca, Kansas, USA


FAA INFORMATION EFFECTIVE 09 NOVEMBER 2017

Location

FAA Identifier: 62K
Lat/Long: 39-50-51.4000N / 096-07-00.9000W
39-50.856667N / 096-07.015000W
39.8476111 / -96.1169167
(estimated)
Elevation: 1291 ft. / 393 m (estimated)
Variation: 06E (1985)
From city: 3 miles W of SENECA, KS
Time zone: UTC -6 (UTC -5 during Daylight Saving Time)
Zip code: 66538

Airport Operations

Airport use: Open to the public
Control tower: no
ARTCC: KANSAS CITY CENTER
FSS: WICHITA FLIGHT SERVICE STATION
NOTAMs facility: ICT (NOTAM-D service available)
Attendance: UNATNDD
CALL 785-336-2141 FOR ARPT ACCESS.
Wind indicator: yes
Segmented circle: no
Lights: SS-SR

Airport Communications

CTAF: 122.9
WX AWOS-3PT at K83 (16 nm E): 118.475 (785-284-2201)

Nearby radio navigation aids

VOR radial/distance  VOR name  Freq  Var
PWEr164/21.6PAWNEE CITY VORTAC112.4005E
RBAr266/32.0ROBINSON VOR/DME108.2004E
BIEr126/40.0BEATRICE VOR/DME110.6007E

Airport Services

Parking: tiedowns
Airframe service: NONE
Powerplant service: NONE
Bottled oxygen: NONE
Bulk oxygen: NONE

Runway Information

Runway 18/36

Dimensions: 2400 x 100 ft. / 732 x 30 m
Surface: turf, in good condition
RY 18/36 ROUGH AT INTERSECTION WITH TWY.
Runway edge lights: non-standard
NSTD LIRL; SPACING MORE THAN 200 FT APART; RY END LGTS ORANGE; AER 18 HAS ONLY 3 RY END LGTS.
Gradient: NORTH
Operational restrictions: RY 36 3.5% INCLINE FIRST 1,000 FT; REMAINDER 2% INCLINE.
RUNWAY 18  RUNWAY 36
Latitude: 39-51.053845N39-50.659715N
Longitude: 096-06.994340W096-07.035493W
Elevation: 1291.0 ft.1270.0 ft.
Gradient: 0.9% UP
Traffic pattern: leftleft
Runway heading: 179 magnetic, 185 true359 magnetic, 005 true
Obstructions: 6 ft. fence, marked, 192 ft. from runway, 32:1 slope to clear
FENCE AER 18 MKD WITH WHITE REFLECTORS.
45 ft. trees, 925 ft. from runway, 192 ft. left of centerline, 20:1 slope to clear

Airport Ownership and Management from official FAA records

Ownership: Publicly-owned
Owner: CITY OF SENECA
531 MAIN ST.
SENECA, KS 66538
Phone 785-336-2747
Manager: BRIAN RUSCHE
531 MAIN ST.
SENECA, KS 66538
Phone 785-336-3537

Airport Operational Statistics

Aircraft operations: avg 25/month *
67% local general aviation
33% transient general aviation
* for 12-month period ending 31 August 2017

Additional Remarks

ULTRALGT ACTVTY ON & INVOF ARPT.

Instrument Procedures

There are no published instrument procedures at 62K.

Some nearby airports with instrument procedures:

KMYZ - Marysville Municipal Airport (24 nm W)
KFNB - Brenner Field Airport (28 nm NE)
0G3 - Tecumseh Municipal Airport (33 nm N)
KBIE - Beatrice Municipal Airport (40 nm NW)
K38 - Washington County Veteran's Memorial Airport (43 nm W)
 
Loc | Ops | Rwys | IFR | FBO | Links
Com | Nav | Svcs | Stats | Notes

Kansas City Aviation Department
 
Area around 62K (Seneca Municipal Airport)
 
Road maps at: MapQuest Bing Google
 
Aerial photo
No photo
 
Sectional chart

 
Airport distance calculator
Flying to Seneca Municipal Airport? Find the distance to fly.

From to 62K

Sunrise and sunset
Times for 17-Nov-2017
 Local
(UTC-6)
 Zulu
(UTC)
Morning civil twilight06:4412:44
Sunrise07:1313:13
Sunset17:0623:06
Evening civil twilight17:3523:35

Current date and time
Zulu (UTC)  17-Nov-2017 19:55:44
Local (UTC-6)  17-Nov-2017 13:55:44
 
METAR
KMYZ 
24nm W 
171935Z AUTO 22007KT 10SM CLR 22/13 A2948 RMK AO2
KFNB 
28nm NE 
171853Z AUTO 19011G15KT 9SM SCT015 OVC037 17/13 A2953 RMK AO2 SLP998 T01720133
KBIE 
39nm NW 
171935Z AUTO 25009KT 10SM CLR 20/12 A2949 RMK AO2 T02040115
KAFK 
47nm N 
171935Z AUTO 19010KT 7SM BKN019 BKN024 OVC033 18/15 A2951 RMK AO2 T01780146
TAF
NOTAMs
Click for the latest NOTAMs
NOTAMs are issued by the DoD/FAA and will open in a separate window not controlled by AirNav.

 

 
 

Would you like to see your business listed on this page?

 If your business provides an interesting product or service to pilots, flight crews, aircraft, or users of the Seneca Municipal Airport, you should consider listing it here.  To start the listing process, click on the button below
 
Add a business
 

Other Pages about Seneca Municipal Airport

Update a link
 
Copyright © AirNav, LLC. All rights reserved. Privacy Policy  Contact